Terminal Aerodrome Forecast
Issued by NWS Memphis, TN

Home | Current Version | Previous Version | Text Only | Print | Product List | Glossary On
Versions: 1 2 3 4 5 6 7 8 9 10 11 12 13 14 15 16 17 18 19 20 21 22 23 24 25 26 27 28 29 30 31
528
FTUS44 KMEG 311730
TAFMEM
TAF
KMEM 311730Z 3118/0118 18006KT P6SM SCT050 BKN120
     FM312100 18006KT P6SM VCTS SCT050CB BKN120
     FM010100 18003KT P6SM BKN060 BKN120
     FM010400 VRB03KT P6SM SCT120
     FM011100 VRB03KT P6SM VCTS BKN040CB OVC080
     FM011500 22003KT P6SM SCT060 BKN120=

USA.gov is the U.S. government's official web portal to all federal, state and local government web resources and services.